createdAt,value
2022-11-10T07:45:47.046Z,10.41
2022-11-10T07:46:48.475Z,10.44
2022-11-10T07:47:53.968Z,10.85
2022-11-10T07:48:55.374Z,11.52
2022-11-10T07:49:56.686Z,11.55
2022-11-10T07:50:58.043Z,12.93
2022-11-10T07:51:59.370Z,13.36
2022-11-10T07:53:07.950Z,14.23
2022-11-10T07:54:09.388Z,14.78
2022-11-10T07:55:11.114Z,15.36
2022-11-10T07:56:12.622Z,16.45
2022-11-10T07:57:14.032Z,16.78
2022-11-10T07:58:17.355Z,15.40
2022-11-10T07:59:18.755Z,14.99
2022-11-10T08:00:20.139Z,15.29
2022-11-10T08:01:21.503Z,16.56
2022-11-10T08:02:22.957Z,16.70
2022-11-10T08:03:24.650Z,16.04
2022-11-10T08:04:26.174Z,15.70
2022-11-10T08:05:27.750Z,15.51
2022-11-10T08:06:32.240Z,16.68
2022-11-10T08:07:36.462Z,17.52
2022-11-10T08:08:37.937Z,17.61
2022-11-10T08:09:39.298Z,18.06
2022-11-10T08:10:41.626Z,18.17
2022-11-10T08:11:42.962Z,18.18
2022-11-10T08:12:44.280Z,18.40
2022-11-10T08:13:45.615Z,18.87
2022-11-10T08:14:46.999Z,19.17
2022-11-10T08:15:48.573Z,19.08
2022-11-10T08:16:50.517Z,19.06
2022-11-10T08:17:51.997Z,19.06
2022-11-10T08:18:53.531Z,19.07
2022-11-10T08:19:54.900Z,19.12
2022-11-10T08:20:56.304Z,18.39
2022-11-10T08:21:57.648Z,18.58
2022-11-10T08:23:05.922Z,18.90
2022-11-10T08:24:10.828Z,19.23
2022-11-10T08:25:12.346Z,19.81
2022-11-10T08:26:16.571Z,19.86
2022-11-10T08:27:17.900Z,19.87
2022-11-10T08:28:19.886Z,20.29
2022-11-10T08:29:21.329Z,20.42
2022-11-10T08:30:22.769Z,20.54
2022-11-10T08:31:24.529Z,19.86
2022-11-10T08:32:26.021Z,20.43
2022-11-10T08:33:27.367Z,20.05
2022-11-10T08:34:28.736Z,20.75
2022-11-10T08:35:31.353Z,20.90
2022-11-10T08:36:32.812Z,20.75
2022-11-10T08:37:34.223Z,21.41
2022-11-10T08:38:35.807Z,21.44
2022-11-10T08:39:39.570Z,21.86
2022-11-10T08:40:41.844Z,21.94
2022-11-10T08:41:43.238Z,21.53
2022-11-10T08:42:44.675Z,21.05
2022-11-10T08:43:45.998Z,21.14
2022-11-10T08:44:47.444Z,20.97
2022-11-10T08:45:48.947Z,20.80
2022-11-10T08:46:50.953Z,19.88
2022-11-10T08:48:03.962Z,20.53
2022-11-10T08:49:05.378Z,21.69
2022-11-10T08:50:07.890Z,21.74
2022-11-10T08:51:09.340Z,21.90
2022-11-10T08:52:11.301Z,22.25
2022-11-10T08:53:15.098Z,21.62
2022-11-10T08:54:16.500Z,21.61
2022-11-10T08:55:19.997Z,21.57
2022-11-10T08:56:21.572Z,21.53
2022-11-10T08:57:23.081Z,21.29
2022-11-10T08:58:24.532Z,20.33
2022-11-10T08:59:26.125Z,20.62
2022-11-10T09:00:28.650Z,20.99
2022-11-10T09:01:30.116Z,20.81
2022-11-10T09:02:31.979Z,20.55
2022-11-10T09:03:33.301Z,20.41
2022-11-10T09:04:34.707Z,20.48
2022-11-10T09:05:36.736Z,19.78
2022-11-10T09:06:38.144Z,20.27
2022-11-10T09:07:47.831Z,20.56
2022-11-10T09:08:49.374Z,19.70
2022-11-10T09:10:06.049Z,19.90
2022-11-10T09:11:08.376Z,19.83
2022-11-10T09:12:09.705Z,19.39
2022-11-10T09:13:12.964Z,19.75
2022-11-10T09:14:14.756Z,19.60
2022-11-10T09:15:16.167Z,20.05
2022-11-10T09:16:17.693Z,20.06
2022-11-10T09:17:19.037Z,19.11
2022-11-10T09:18:20.359Z,19.09
2022-11-10T09:19:21.697Z,19.82
2022-11-10T09:20:23.155Z,19.32
2022-11-10T09:21:24.511Z,20.03
2022-11-10T09:22:26.005Z,19.62
2022-11-10T09:23:28.084Z,20.67
2022-11-10T09:24:31.513Z,20.21
2022-11-10T09:25:33.448Z,20.67
2022-11-10T09:26:34.885Z,20.19
2022-11-10T09:27:39.174Z,19.73
2022-11-10T09:28:40.530Z,20.48
2022-11-10T09:29:42.046Z,20.16
2022-11-10T09:30:46.744Z,20.32
2022-11-10T09:31:48.419Z,20.02
2022-11-10T09:32:57.632Z,20.00
2022-11-10T09:33:59.225Z,19.73
2022-11-10T09:35:01.634Z,19.39
2022-11-10T09:36:03.057Z,19.72
2022-11-10T09:37:04.543Z,20.29
2022-11-10T09:38:06.632Z,20.37
2022-11-10T09:39:08.005Z,20.21
2022-11-10T09:40:23.326Z,18.84
2022-11-10T09:41:24.806Z,19.47
2022-11-10T09:42:41.267Z,19.59
2022-11-10T09:43:47.502Z,19.48
2022-11-10T09:45:00.027Z,20.00
2022-11-10T09:46:06.267Z,20.45
2022-11-10T09:47:50.591Z,20.73
2022-11-10T09:48:56.188Z,20.59
2022-11-10T09:50:00.884Z,20.31
2022-11-10T09:51:07.001Z,20.41
2022-11-10T09:52:12.390Z,21.37
2022-11-10T09:53:21.548Z,20.23
2022-11-10T09:54:47.741Z,21.21
2022-11-10T09:55:52.521Z,20.71
2022-11-10T09:57:00.170Z,21.46
2022-11-10T09:58:02.510Z,21.00
2022-11-10T09:59:19.344Z,20.80
2022-11-10T10:00:20.982Z,20.84
2022-11-10T10:01:29.111Z,21.44
2022-11-10T10:02:48.091Z,22.01
2022-11-10T10:04:13.738Z,22.50
2022-11-10T10:05:29.269Z,21.39
2022-11-10T10:06:57.157Z,22.77
2022-11-10T10:08:05.805Z,22.06
2022-11-10T10:09:07.086Z,22.00
2022-11-10T10:10:25.930Z,22.39
2022-11-10T10:11:36.398Z,22.97
2022-11-10T10:13:10.116Z,22.86
2022-11-10T10:14:31.088Z,23.51
2022-11-10T10:15:42.213Z,23.26
2022-11-10T10:16:49.488Z,23.34
2022-11-10T10:18:06.575Z,22.17
2022-11-10T10:19:46.996Z,22.04
2022-11-10T10:20:57.545Z,21.31
2022-11-10T10:22:20.320Z,22.45
2022-11-10T10:24:07.064Z,21.24
2022-11-10T10:25:02.080Z,21.42
2022-11-10T10:26:03.894Z,22.10
2022-11-10T10:27:10.251Z,22.15
2022-11-10T10:28:40.085Z,22.50
2022-11-10T10:29:46.943Z,22.05
2022-11-10T10:30:48.620Z,20.48
2022-11-10T10:31:51.788Z,21.53
2022-11-10T10:33:00.128Z,22.18
2022-11-10T10:34:02.508Z,23.25
2022-11-10T10:35:04.157Z,22.64
2022-11-10T10:36:14.385Z,22.80
2022-11-10T10:37:35.583Z,22.95
2022-11-10T10:38:40.068Z,23.65
2022-11-10T10:39:46.374Z,24.09
2022-11-10T10:40:50.600Z,23.60
2022-11-10T10:41:52.350Z,22.80
2022-11-10T10:42:54.508Z,22.98
2022-11-10T10:43:58.221Z,24.04
2022-11-10T10:45:16.597Z,22.73
2022-11-10T10:46:20.251Z,22.12
2022-11-10T10:47:36.888Z,22.59
2022-11-10T10:48:38.221Z,22.74
2022-11-10T10:49:42.462Z,23.17
2022-11-10T10:50:43.909Z,22.20
2022-11-10T10:51:45.712Z,22.02
2022-11-10T10:53:07.873Z,22.77
2022-11-10T10:54:36.268Z,23.69
2022-11-10T10:55:41.366Z,22.96
2022-11-10T10:56:42.702Z,21.94
2022-11-10T10:57:51.905Z,21.93
2022-11-10T10:59:00.315Z,23.39
2022-11-10T11:00:21.495Z,23.21
2022-11-10T11:01:30.666Z,23.10
2022-11-10T11:02:35.572Z,23.45
2022-11-10T11:03:45.465Z,23.33
2022-11-10T11:04:46.789Z,22.46
2022-11-10T11:06:07.100Z,23.10
2022-11-10T11:07:24.408Z,23.03
2022-11-10T11:08:26.955Z,22.94
2022-11-10T11:09:38.223Z,22.15
2022-11-10T11:10:46.008Z,22.42
2022-11-10T11:12:10.384Z,22.46
2022-11-10T11:13:21.655Z,22.26
2022-11-10T11:14:26.643Z,22.37
2022-11-10T11:15:30.327Z,19.66
2022-11-10T11:16:56.349Z,21.38
2022-11-10T11:18:03.692Z,21.41
2022-11-10T11:19:05.146Z,20.62
2022-11-10T11:20:14.421Z,21.41
2022-11-10T11:21:37.238Z,22.34
2022-11-10T11:22:49.085Z,22.97
2022-11-10T11:24:12.128Z,23.83
2022-11-10T11:25:33.305Z,20.81
2022-11-10T11:26:51.416Z,20.24
2022-11-10T11:28:11.553Z,19.79
2022-11-10T11:29:55.732Z,20.33
2022-11-10T11:31:06.277Z,21.15
2022-11-10T11:32:33.618Z,21.47
2022-11-10T11:33:42.460Z,19.41
2022-11-10T11:35:06.981Z,19.53
2022-11-10T11:36:17.871Z,20.29
2022-11-10T11:37:46.703Z,20.79
2022-11-10T11:38:58.642Z,21.23
2022-11-10T11:40:24.098Z,22.50
2022-11-10T11:41:31.541Z,21.77
2022-11-10T11:42:41.977Z,20.49
2022-11-10T11:43:55.570Z,20.79
2022-11-10T11:45:18.857Z,20.22
2022-11-10T11:46:38.568Z,20.14
2022-11-10T11:47:52.860Z,20.67
2022-11-10T11:49:25.407Z,19.70
2022-11-10T11:50:35.889Z,16.28
2022-11-10T11:51:49.629Z,17.88
2022-11-10T11:53:12.833Z,18.44
2022-11-10T11:54:45.461Z,17.29
2022-11-10T11:56:21.200Z,17.32
2022-11-10T11:57:58.993Z,18.23
2022-11-10T11:59:10.024Z,19.55
2022-11-10T12:00:17.306Z,19.86
2022-11-10T12:01:55.531Z,20.97
2022-11-10T12:03:33.543Z,20.60
2022-11-10T12:04:49.903Z,19.20
2022-11-10T12:06:29.204Z,19.21
2022-11-10T12:07:59.873Z,19.52
2022-11-10T12:09:11.955Z,19.91
2022-11-10T12:10:37.271Z,18.37
2022-11-10T12:12:09.373Z,20.56
2022-11-10T12:13:37.590Z,20.52
2022-11-10T12:14:56.914Z,20.18
2022-11-10T12:15:58.185Z,20.80
2022-11-10T12:17:33.442Z,20.73
2022-11-10T12:18:50.967Z,21.39
2022-11-10T12:20:09.275Z,20.05
2022-11-10T12:21:23.889Z,20.69
2022-11-10T12:22:33.980Z,21.59
2022-11-10T12:23:38.083Z,21.84
2022-11-10T12:25:07.312Z,21.53
2022-11-10T12:26:52.319Z,21.02
2022-11-10T12:28:09.526Z,21.56
2022-11-10T12:29:48.871Z,21.60
2022-11-10T12:31:00.560Z,21.42
2022-11-10T12:32:21.498Z,20.58
2022-11-10T12:33:44.359Z,20.53
2022-11-10T12:35:05.687Z,20.66
2022-11-10T12:36:15.759Z,20.01
2022-11-10T12:37:28.495Z,20.10
2022-11-10T12:38:41.960Z,20.22
2022-11-10T12:39:53.741Z,19.78
2022-11-10T12:41:07.453Z,18.56
2022-11-10T12:42:18.189Z,18.03
2022-11-10T12:43:35.061Z,17.21
2022-11-10T12:44:58.159Z,17.36
2022-11-10T12:46:04.756Z,16.83
2022-11-10T12:47:14.836Z,17.55
2022-11-10T12:48:17.560Z,18.13
2022-11-10T12:49:33.904Z,18.47
2022-11-10T12:50:58.389Z,18.34
2022-11-10T12:52:17.755Z,19.03
2022-11-10T12:53:26.189Z,18.87
2022-11-10T12:54:28.659Z,19.44
2022-11-10T12:55:44.515Z,20.31
2022-11-10T12:56:51.892Z,20.56
2022-11-10T12:57:53.570Z,19.56
2022-11-10T12:59:23.392Z,18.56
2022-11-10T13:00:31.703Z,17.68
2022-11-10T13:01:33.352Z,17.70
2022-11-10T13:02:46.889Z,17.37
2022-11-10T13:03:58.419Z,17.88
2022-11-10T13:05:10.380Z,19.56
2022-11-10T13:06:28.708Z,19.35
2022-11-10T13:07:30.145Z,19.56
2022-11-10T13:08:44.979Z,20.03
2022-11-10T13:09:46.423Z,20.42
2022-11-10T13:10:52.704Z,21.11
2022-11-10T13:12:04.582Z,21.73
2022-11-10T13:13:06.050Z,21.41
2022-11-10T13:14:27.823Z,21.18
2022-11-10T13:15:37.915Z,20.74
2022-11-10T13:16:40.430Z,20.37
2022-11-10T13:17:41.713Z,20.52
2022-11-10T13:18:43.026Z,19.72
2022-11-10T13:19:53.505Z,19.18
2022-11-10T13:20:55.725Z,19.53
2022-11-10T13:22:00.614Z,19.54
2022-11-10T13:23:21.277Z,19.87
2022-11-10T13:24:36.610Z,19.67
2022-11-10T13:25:42.282Z,19.69
2022-11-10T13:26:43.772Z,18.99
2022-11-10T13:27:54.071Z,19.99
2022-11-10T13:28:57.858Z,20.46
2022-11-10T13:30:00.114Z,20.48
2022-11-10T13:31:30.323Z,19.97
2022-11-10T13:32:35.402Z,20.36
2022-11-10T13:33:38.293Z,19.04
2022-11-10T13:34:44.235Z,18.57
2022-11-10T13:35:55.637Z,18.40
2022-11-10T13:36:57.893Z,18.99
2022-11-10T13:37:59.369Z,19.62
2022-11-10T13:39:26.919Z,20.43
2022-11-10T13:40:31.539Z,20.36
2022-11-10T13:41:34.685Z,20.91
2022-11-10T13:42:36.228Z,20.99
2022-11-10T13:43:48.869Z,21.16
2022-11-10T13:44:52.341Z,21.47
2022-11-10T13:46:02.976Z,21.69
2022-11-10T13:47:39.706Z,20.89
2022-11-10T13:49:19.647Z,21.33
2022-11-10T13:50:30.415Z,19.90
2022-11-10T13:51:41.528Z,20.89
2022-11-10T13:53:05.684Z,19.20
2022-11-10T13:54:30.088Z,20.79
2022-11-10T13:55:47.253Z,20.10
2022-11-10T13:57:04.615Z,20.67
2022-11-10T13:58:14.512Z,20.43
2022-11-10T13:59:22.715Z,19.90
2022-11-10T14:00:27.762Z,20.55
2022-11-10T14:01:30.285Z,20.52
2022-11-10T14:02:34.794Z,21.06
2022-11-10T14:04:05.380Z,21.29
2022-11-10T14:05:09.294Z,21.56
2022-11-10T14:06:15.737Z,21.79
2022-11-10T14:07:18.964Z,22.10
2022-11-10T14:08:25.798Z,21.95
2022-11-10T14:09:42.096Z,21.06
2022-11-10T14:10:58.766Z,19.27
2022-11-10T14:12:13.308Z,19.10
2022-11-10T14:13:23.716Z,20.06
2022-11-10T14:14:35.971Z,19.61
2022-11-10T14:15:46.092Z,20.03
2022-11-10T14:16:47.725Z,20.15
2022-11-10T14:17:51.831Z,19.74
2022-11-10T14:18:58.896Z,20.06
2022-11-10T14:20:01.243Z,19.98
2022-11-10T14:21:03.565Z,19.23
2022-11-10T14:22:21.668Z,18.14
2022-11-10T14:23:31.331Z,19.20
2022-11-10T14:24:39.167Z,19.29
2022-11-10T14:25:43.971Z,18.93
2022-11-10T14:26:52.016Z,19.22
2022-11-10T14:27:57.913Z,19.19
2022-11-10T14:29:20.250Z,19.20
2022-11-10T14:30:21.714Z,19.43
2022-11-10T14:31:25.320Z,19.69
2022-11-10T14:32:26.847Z,20.08
2022-11-10T14:33:28.225Z,19.32
2022-11-10T14:34:31.789Z,19.39
2022-11-10T14:35:44.635Z,19.15
2022-11-10T14:36:59.013Z,19.50
2022-11-10T14:38:02.757Z,19.30
2022-11-10T14:39:06.664Z,19.67
2022-11-10T14:40:18.963Z,20.19
2022-11-10T14:41:22.765Z,20.60
2022-11-10T14:42:26.721Z,20.47
2022-11-10T14:43:29.935Z,20.31
2022-11-10T14:44:33.064Z,20.21
2022-11-10T14:45:34.566Z,20.34
2022-11-10T14:46:38.240Z,20.44
2022-11-10T14:47:39.802Z,20.04
2022-11-10T14:48:41.249Z,19.49
2022-11-10T14:49:43.855Z,19.10
2022-11-10T14:50:45.404Z,18.09
2022-11-10T14:51:46.990Z,17.48
2022-11-10T14:52:53.898Z,17.59
2022-11-10T14:53:57.272Z,17.38
2022-11-10T14:54:59.255Z,17.01
2022-11-10T14:56:03.604Z,16.90
2022-11-10T14:57:06.054Z,16.89
2022-11-10T14:58:15.255Z,16.51
2022-11-10T14:59:17.852Z,16.41
2022-11-10T15:00:25.219Z,16.50
2022-11-10T15:01:33.822Z,16.36
2022-11-10T15:02:36.064Z,16.15
2022-11-10T15:03:42.371Z,16.07
2022-11-10T15:04:46.178Z,15.52
2022-11-10T15:05:48.850Z,15.41
2022-11-10T15:06:53.263Z,15.33
2022-11-10T15:07:56.513Z,15.38
2022-11-10T15:09:01.736Z,15.40
2022-11-10T15:10:14.536Z,15.44
2022-11-10T15:11:47.087Z,15.38
2022-11-10T15:13:19.791Z,15.36
2022-11-10T15:14:49.561Z,15.06
2022-11-10T15:15:53.678Z,14.81
2022-11-10T15:17:06.152Z,15.16
2022-11-10T15:18:24.622Z,14.95
2022-11-10T15:19:31.455Z,14.83
2022-11-10T15:20:41.451Z,14.47
2022-11-10T15:21:42.805Z,14.53
2022-11-10T15:22:44.456Z,14.85
2022-11-10T15:23:52.329Z,14.89
2022-11-10T15:24:53.715Z,14.91
2022-11-10T15:25:55.381Z,15.00
2022-11-10T15:26:57.018Z,15.13
2022-11-10T15:28:05.548Z,14.78
2022-11-10T15:29:21.478Z,14.68
2022-11-10T15:30:24.707Z,14.68
2022-11-10T15:31:31.816Z,14.59
2022-11-10T15:32:42.468Z,14.32
2022-11-10T15:33:51.171Z,14.40
2022-11-10T15:34:53.165Z,14.41
2022-11-10T15:35:56.311Z,14.60
2022-11-10T15:37:27.392Z,14.80
2022-11-10T15:38:32.259Z,14.74
2022-11-10T15:39:33.809Z,14.72
2022-11-10T15:40:43.068Z,14.60
2022-11-10T15:41:48.924Z,14.36
2022-11-10T15:43:27.556Z,14.39
2022-11-10T15:44:29.125Z,14.09
2022-11-10T15:45:30.459Z,13.82
2022-11-10T15:46:31.842Z,13.73
2022-11-10T15:47:33.514Z,13.61
2022-11-10T15:48:41.719Z,13.49
2022-11-10T15:49:43.883Z,13.34
2022-11-10T15:50:51.011Z,13.22
2022-11-10T15:51:57.515Z,13.16
2022-11-10T15:52:59.216Z,13.11
2022-11-10T15:54:00.559Z,13.09
2022-11-10T15:55:01.897Z,12.88
2022-11-10T15:56:03.480Z,12.96
2022-11-10T15:57:10.685Z,12.71
2022-11-10T15:58:20.643Z,12.66
2022-11-10T15:59:22.350Z,12.60
2022-11-10T16:00:24.135Z,12.49
2022-11-10T16:01:25.774Z,12.46
2022-11-10T16:02:27.209Z,12.40
2022-11-10T16:03:31.453Z,12.35
2022-11-10T16:04:32.780Z,12.28
2022-11-10T16:05:34.133Z,12.25
2022-11-10T16:06:35.554Z,12.13
2022-11-10T16:07:37.146Z,12.12
2022-11-10T16:08:38.650Z,12.17
2022-11-10T16:09:40.101Z,12.02
2022-11-10T16:10:46.932Z,11.92
2022-11-10T16:11:48.397Z,11.97
2022-11-10T16:12:49.838Z,11.96
2022-11-10T16:13:52.805Z,11.88
2022-11-10T16:14:55.039Z,11.81
2022-11-10T16:15:59.339Z,11.76
2022-11-10T16:17:03.626Z,11.56
2022-11-10T16:18:11.839Z,11.61
2022-11-10T16:19:13.276Z,11.50
2022-11-10T16:20:15.127Z,11.40
2022-11-10T16:21:19.922Z,11.41
2022-11-10T16:22:21.307Z,11.40
2022-11-10T16:23:23.818Z,11.34
2022-11-10T16:24:25.152Z,11.36
2022-11-10T16:25:27.927Z,11.18
2022-11-10T16:26:30.389Z,11.35
2022-11-10T16:27:31.872Z,11.26
2022-11-10T16:28:34.248Z,11.16
2022-11-10T16:29:36.635Z,11.04
2022-11-10T16:30:38.194Z,11.15
2022-11-10T16:31:39.544Z,11.12
2022-11-10T16:32:40.909Z,11.01
2022-11-10T16:33:42.366Z,10.99
2022-11-10T16:34:43.752Z,10.91
2022-11-10T16:35:45.281Z,10.88
2022-11-10T16:36:47.522Z,10.86
2022-11-10T16:37:49.139Z,10.84
2022-11-10T16:38:53.062Z,10.85
2022-11-10T16:39:54.460Z,10.82
2022-11-10T16:41:00.913Z,10.61
2022-11-10T16:42:02.373Z,10.68
2022-11-10T16:43:03.804Z,10.60
2022-11-10T16:44:05.987Z,10.59
2022-11-10T16:45:20.657Z,10.47
2022-11-10T16:46:24.590Z,10.49
2022-11-10T16:47:27.618Z,10.29
2022-11-10T16:48:32.592Z,10.48
2022-11-10T16:49:35.711Z,10.40
2022-11-10T16:50:41.102Z,10.36
2022-11-10T16:51:48.594Z,10.18
2022-11-10T16:52:50.562Z,10.24
2022-11-10T16:53:53.545Z,10.11
2022-11-10T16:54:54.944Z,10.17
2022-11-10T16:56:01.026Z,10.16
2022-11-10T16:57:02.550Z,10.18
2022-11-10T16:58:03.940Z,10.16
2022-11-10T16:59:05.320Z,10.17
2022-11-10T17:00:07.360Z,10.12
2022-11-10T17:01:21.271Z,10.12
2022-11-10T17:02:35.281Z,10.15
2022-11-10T17:03:40.179Z,10.10
2022-11-10T17:04:41.526Z,10.02
2022-11-10T17:05:43.360Z,10.16
2022-11-10T17:06:45.063Z,9.99
2022-11-10T17:07:47.138Z,10.00
2022-11-10T17:08:51.261Z,9.92
2022-11-10T17:09:52.810Z,9.91
2022-11-10T17:10:56.774Z,9.75
2022-11-10T17:11:58.174Z,9.68
2022-11-10T17:12:59.515Z,9.78
2022-11-10T17:14:00.850Z,9.73
2022-11-10T17:15:02.299Z,9.63
2022-11-10T17:16:07.710Z,9.63
2022-11-10T17:17:18.372Z,9.59
2022-11-10T17:18:26.907Z,9.49
2022-11-10T17:19:28.304Z,9.67
2022-11-10T17:20:34.422Z,9.65
2022-11-10T17:21:36.510Z,9.47
2022-11-10T17:22:38.050Z,9.45
2022-11-10T17:23:43.278Z,9.53
2022-11-10T17:24:47.790Z,9.40
2022-11-10T17:25:50.461Z,9.29
2022-11-10T17:26:51.860Z,9.36
2022-11-10T17:27:53.859Z,9.41
2022-11-10T17:28:59.536Z,9.39
2022-11-10T17:30:01.196Z,9.37
2022-11-10T17:31:03.254Z,9.34
2022-11-10T17:32:04.917Z,9.36
2022-11-10T17:33:06.939Z,9.29
2022-11-10T17:34:11.342Z,9.23
2022-11-10T17:35:13.045Z,9.34
2022-11-10T17:36:18.632Z,9.23
2022-11-10T17:37:20.045Z,9.24
2022-11-10T17:38:24.410Z,9.14
2022-11-10T17:39:29.659Z,9.19
2022-11-10T17:40:31.180Z,9.07
2022-11-10T17:41:33.982Z,9.09
2022-11-10T17:42:35.352Z,9.13
2022-11-10T17:43:38.567Z,9.05
2022-11-10T17:44:41.796Z,8.99
2022-11-10T17:45:43.534Z,9.05
2022-11-10T17:46:45.058Z,8.87
2022-11-10T17:47:48.253Z,8.76
2022-11-10T17:48:49.936Z,8.81
2022-11-10T17:49:51.394Z,8.64
2022-11-10T17:50:52.736Z,8.63
2022-11-10T17:51:54.111Z,8.66
2022-11-10T17:52:55.563Z,8.54
2022-11-10T17:53:58.834Z,8.55
2022-11-10T17:55:00.216Z,8.74
2022-11-10T17:56:01.545Z,8.70
2022-11-10T17:57:04.422Z,8.59
2022-11-10T17:58:05.878Z,8.66
2022-11-10T17:59:07.432Z,8.49
2022-11-10T18:00:09.693Z,8.57
2022-11-10T18:01:18.005Z,8.54
2022-11-10T18:02:19.395Z,8.59
2022-11-10T18:03:22.485Z,8.56
2022-11-10T18:04:24.101Z,8.53
2022-11-10T18:05:25.510Z,8.49
2022-11-10T18:06:26.918Z,8.33
2022-11-10T18:07:28.248Z,8.49
2022-11-10T18:08:29.570Z,8.54
2022-11-10T18:09:30.901Z,8.58
2022-11-10T18:10:32.252Z,8.52
2022-11-10T18:11:37.196Z,8.54
2022-11-10T18:12:38.754Z,8.45
2022-11-10T18:13:41.844Z,8.50
2022-11-10T18:14:43.164Z,8.37
2022-11-10T18:15:46.302Z,8.33
2022-11-10T18:16:47.768Z,8.36
2022-11-10T18:17:49.120Z,8.22
2022-11-10T18:18:50.512Z,8.22
2022-11-10T18:19:51.897Z,8.16
2022-11-10T18:20:56.435Z,8.15
2022-11-10T18:21:57.812Z,8.23
2022-11-10T18:22:59.695Z,8.24
2022-11-10T18:24:01.982Z,8.02
2022-11-10T18:25:04.161Z,8.00
2022-11-10T18:26:11.835Z,8.07
2022-11-10T18:27:13.157Z,7.93
2022-11-10T18:28:14.791Z,8.04
2022-11-10T18:29:16.147Z,8.07
2022-11-10T18:30:18.995Z,7.98
2022-11-10T18:31:20.585Z,8.03
2022-11-10T18:32:23.043Z,7.98
2022-11-10T18:33:24.663Z,7.98
2022-11-10T18:34:26.336Z,7.92
2022-11-10T18:35:31.923Z,7.96
2022-11-10T18:36:33.332Z,8.05
2022-11-10T18:37:38.771Z,7.75
2022-11-10T18:38:40.489Z,7.74
2022-11-10T18:39:42.313Z,7.60
2022-11-10T18:40:43.656Z,7.65
2022-11-10T18:41:52.197Z,7.79
2022-11-10T18:42:58.553Z,7.64
2022-11-10T18:44:02.086Z,7.79
2022-11-10T18:45:03.989Z,7.56
2022-11-10T18:46:05.473Z,7.65
2022-11-10T18:47:10.707Z,7.74
2022-11-10T18:48:12.045Z,7.68
2022-11-10T18:49:13.885Z,7.65
2022-11-10T18:50:15.348Z,7.59
2022-11-10T18:51:16.767Z,7.53
2022-11-10T18:52:18.300Z,7.37
2022-11-10T18:53:19.754Z,7.42
2022-11-10T18:54:21.364Z,7.55
2022-11-10T18:55:22.737Z,7.52
2022-11-10T18:56:25.723Z,7.45
2022-11-10T18:57:27.120Z,7.33
2022-11-10T18:58:28.496Z,7.38
